createdAt,value
2017-07-23T00:00:12.182Z,20.90
2017-07-23T00:02:40.450Z,20.80
2017-07-23T00:05:08.777Z,20.80
2017-07-23T00:07:36.980Z,20.80
2017-07-23T00:10:05.289Z,20.70
2017-07-23T00:12:33.553Z,20.70
2017-07-23T00:15:01.834Z,20.70
2017-07-23T00:17:30.120Z,20.70
2017-07-23T00:19:58.390Z,20.60
2017-07-23T00:22:26.619Z,20.50
2017-07-23T00:24:55.697Z,20.40
2017-07-23T00:27:23.940Z,20.40
2017-07-23T00:29:52.195Z,20.40
2017-07-23T00:32:20.508Z,20.30
2017-07-23T00:34:48.753Z,20.30
2017-07-23T00:37:17.025Z,20.30
2017-07-23T00:39:45.274Z,20.30
2017-07-23T00:42:13.578Z,20.30
2017-07-23T00:44:41.850Z,20.20
2017-07-23T00:47:10.081Z,20.20
2017-07-23T00:49:39.096Z,20.20
2017-07-23T00:52:07.350Z,20.20
2017-07-23T00:54:36.360Z,20.10
2017-07-23T00:57:04.624Z,20.10
2017-07-23T00:59:33.644Z,20.20
2017-07-23T01:02:01.910Z,20.20
2017-07-23T01:04:30.148Z,20.20
2017-07-23T01:06:58.409Z,20.10
2017-07-23T01:09:26.661Z,20.10
2017-07-23T01:11:54.905Z,20.20
2017-07-23T01:14:23.229Z,20.10
2017-07-23T01:16:51.485Z,20.20
2017-07-23T01:19:20.541Z,20.20
2017-07-23T01:21:49.558Z,20.20
2017-07-23T01:24:17.820Z,20.20
2017-07-23T01:26:46.077Z,20.30
2017-07-23T01:29:15.095Z,20.30
2017-07-23T01:31:43.349Z,20.30
2017-07-23T01:34:12.357Z,20.40
2017-07-23T01:36:40.640Z,20.40
2017-07-23T01:39:08.941Z,20.40
2017-07-23T01:41:37.198Z,20.50
2017-07-23T01:44:05.441Z,20.50
2017-07-23T01:46:34.457Z,20.60
2017-07-23T01:49:02.737Z,20.50
2017-07-23T01:51:31.029Z,20.50
2017-07-23T01:53:59.260Z,20.50
2017-07-23T01:56:28.307Z,20.60
2017-07-23T01:58:56.537Z,20.60
2017-07-23T02:01:24.851Z,20.60
2017-07-23T02:03:53.116Z,20.60
2017-07-23T02:06:21.392Z,20.60
2017-07-23T02:08:49.622Z,20.60
2017-07-23T02:11:18.625Z,20.60
2017-07-23T02:13:46.925Z,20.60
2017-07-23T02:16:15.272Z,20.60
2017-07-23T02:18:43.581Z,20.60
2017-07-23T02:21:11.891Z,20.60
2017-07-23T02:23:40.137Z,20.60
2017-07-23T02:26:08.377Z,20.60
2017-07-23T02:28:37.389Z,20.50
2017-07-23T02:31:05.624Z,20.50
2017-07-23T02:33:34.653Z,20.40
2017-07-23T02:36:02.955Z,20.40
2017-07-23T02:38:31.202Z,20.40
2017-07-23T02:40:59.430Z,20.30
2017-07-23T02:43:27.765Z,20.20
2017-07-23T02:45:56.076Z,20.10
2017-07-23T02:48:24.357Z,20.10
2017-07-23T02:50:52.617Z,20.00
2017-07-23T02:53:20.925Z,20.00
2017-07-23T02:55:49.244Z,20.00
2017-07-23T02:58:17.494Z,20.00
2017-07-23T03:00:45.974Z,19.90
2017-07-23T03:03:14.998Z,19.80
2017-07-23T03:05:43.226Z,19.80
2017-07-23T03:08:12.263Z,19.60
2017-07-23T03:10:40.491Z,19.60
2017-07-23T03:13:09.545Z,19.60
2017-07-23T03:15:38.605Z,19.60
2017-07-23T03:18:06.860Z,19.60
2017-07-23T03:20:35.099Z,19.50
2017-07-23T03:23:03.437Z,19.50
2017-07-23T03:25:31.737Z,19.50
2017-07-23T03:27:59.969Z,19.50
2017-07-23T03:30:29.102Z,19.40
2017-07-23T03:32:57.349Z,19.40
2017-07-23T03:35:26.372Z,19.40
2017-07-23T03:37:54.596Z,19.30
2017-07-23T03:40:22.917Z,19.30
2017-07-23T03:42:51.149Z,19.20
2017-07-23T03:45:20.186Z,19.20
2017-07-23T03:47:48.419Z,19.10
2017-07-23T03:50:17.433Z,19.10
2017-07-23T03:52:45.679Z,19.10
2017-07-23T03:55:13.924Z,19.00
2017-07-23T03:57:42.158Z,19.00
2017-07-23T04:00:10.425Z,19.00
2017-07-23T04:02:38.682Z,19.00
2017-07-23T04:05:07.692Z,19.00
2017-07-23T04:07:35.925Z,19.00
2017-07-23T04:10:04.175Z,19.00
2017-07-23T04:12:32.408Z,18.90
2017-07-23T04:15:01.417Z,18.90
2017-07-23T04:17:29.713Z,18.90
2017-07-23T04:19:57.980Z,18.90
2017-07-23T04:22:26.230Z,18.90
2017-07-23T04:24:55.367Z,18.90
2017-07-23T04:27:23.603Z,18.90
2017-07-23T04:29:52.592Z,19.00
2017-07-23T04:32:21.727Z,18.90
2017-07-23T04:34:49.993Z,18.90
2017-07-23T04:37:18.245Z,18.90
2017-07-23T04:39:46.544Z,19.00
2017-07-23T04:42:14.805Z,18.90
2017-07-23T04:44:43.032Z,19.00
2017-07-23T04:47:11.278Z,19.10
2017-07-23T04:49:39.523Z,19.30
2017-07-23T04:52:08.526Z,19.50
2017-07-23T04:54:36.754Z,19.50
2017-07-23T04:57:05.793Z,19.60
2017-07-23T04:59:34.096Z,19.60
2017-07-23T05:02:02.362Z,19.70
2017-07-23T05:04:30.633Z,19.80
2017-07-23T05:06:58.872Z,19.90
2017-07-23T05:09:27.873Z,20.00
2017-07-23T05:11:56.148Z,20.00
2017-07-23T05:14:25.152Z,20.20
2017-07-23T05:16:53.479Z,20.20
2017-07-23T05:19:21.709Z,20.20
2017-07-23T05:21:50.005Z,20.20
2017-07-23T05:24:18.243Z,20.20
2017-07-23T05:26:47.259Z,20.30
2017-07-23T05:29:15.546Z,20.30
2017-07-23T05:31:43.917Z,20.40
2017-07-23T05:34:12.149Z,20.50
2017-07-23T05:36:41.184Z,20.60
2017-07-23T05:39:09.459Z,20.60
2017-07-23T05:41:37.773Z,20.80
2017-07-23T05:44:06.022Z,20.90
2017-07-23T05:46:34.267Z,21.10
2017-07-23T05:49:03.376Z,21.10
2017-07-23T05:51:31.605Z,21.10
2017-07-23T05:53:59.860Z,21.10
2017-07-23T05:56:28.091Z,20.90
2017-07-23T05:58:56.397Z,20.90
2017-07-23T06:01:24.684Z,21.10
2017-07-23T06:03:52.932Z,21.20
2017-07-23T06:06:21.164Z,21.20
2017-07-23T06:08:50.201Z,21.50
2017-07-23T06:11:18.449Z,21.40
2017-07-23T06:13:46.728Z,21.40
2017-07-23T06:16:14.961Z,21.70
2017-07-23T06:18:43.209Z,21.80
2017-07-23T06:21:11.452Z,21.70
2017-07-23T06:23:39.700Z,21.80
2017-07-23T06:26:08.715Z,22.10
2017-07-23T06:28:37.716Z,22.30
2017-07-23T06:31:05.944Z,22.30
2017-07-23T06:33:34.194Z,22.40
2017-07-23T06:36:02.457Z,22.50
2017-07-23T06:38:30.712Z,22.70
2017-07-23T06:40:59.035Z,22.60
2017-07-23T06:43:27.286Z,22.60
2017-07-23T06:45:55.623Z,22.60
2017-07-23T06:48:24.717Z,22.60
2017-07-23T06:50:53.759Z,22.60
2017-07-23T06:53:22.104Z,22.50
2017-07-23T06:55:51.221Z,22.60
2017-07-23T06:58:19.457Z,22.60
2017-07-23T07:00:48.571Z,23.00
2017-07-23T07:03:16.796Z,22.90
2017-07-23T07:05:45.048Z,22.80
2017-07-23T07:08:13.370Z,22.80
2017-07-23T07:10:42.439Z,23.00
2017-07-23T07:13:10.790Z,22.90
2017-07-23T07:15:39.040Z,23.00
2017-07-23T07:18:07.265Z,23.00
2017-07-23T07:20:35.527Z,22.90
2017-07-23T07:23:03.781Z,22.70
2017-07-23T07:25:32.084Z,22.50
2017-07-23T07:28:00.348Z,22.30
2017-07-23T07:30:28.601Z,22.20
2017-07-23T07:32:56.847Z,22.20
2017-07-23T07:35:25.852Z,22.00
2017-07-23T07:37:54.093Z,22.00
2017-07-23T07:40:22.348Z,21.90
2017-07-23T07:42:50.590Z,21.90
2017-07-23T07:45:18.842Z,21.80
2017-07-23T07:47:47.897Z,21.70
2017-07-23T07:50:16.180Z,21.70
2017-07-23T07:52:44.425Z,21.70
2017-07-23T07:55:12.728Z,21.70
2017-07-23T07:57:40.996Z,21.70
2017-07-23T08:00:09.229Z,21.60
2017-07-23T08:02:37.490Z,21.50
2017-07-23T08:05:06.881Z,21.20
2017-07-23T08:07:35.205Z,21.10
2017-07-23T08:10:03.443Z,21.20
2017-07-23T08:12:32.469Z,21.50
2017-07-23T08:15:00.709Z,21.50
2017-07-23T08:17:29.205Z,21.80
2017-07-23T08:19:57.440Z,22.20
2017-07-23T08:22:25.734Z,22.40
2017-07-23T08:24:54.740Z,23.00
2017-07-23T08:27:23.764Z,23.30
2017-07-23T08:29:52.009Z,23.30
2017-07-23T08:32:21.025Z,24.00
2017-07-23T08:34:49.268Z,23.90
2017-07-23T08:37:18.280Z,24.40
2017-07-23T08:39:46.551Z,24.40
2017-07-23T08:42:14.807Z,24.50
2017-07-23T08:44:43.040Z,24.60
2017-07-23T08:47:11.334Z,24.60
2017-07-23T08:49:39.609Z,24.80
2017-07-23T08:52:07.885Z,24.90
2017-07-23T08:54:36.117Z,25.10
2017-07-23T08:57:04.369Z,25.00
2017-07-23T08:59:32.689Z,24.90
2017-07-23T09:02:00.940Z,24.90
2017-07-23T09:04:29.177Z,24.60
2017-07-23T09:06:58.276Z,24.00
2017-07-23T09:09:27.272Z,23.80
2017-07-23T09:11:56.308Z,23.70
2017-07-23T09:14:24.541Z,23.70
2017-07-23T09:16:53.897Z,24.00
2017-07-23T09:19:22.153Z,23.90
2017-07-23T09:21:50.405Z,24.00
2017-07-23T09:24:19.408Z,24.40
2017-07-23T09:26:47.658Z,24.30
2017-07-23T09:29:16.743Z,24.40
2017-07-23T09:31:45.435Z,24.40
2017-07-23T09:34:14.173Z,24.40
2017-07-23T09:36:42.501Z,24.10
2017-07-23T09:39:11.515Z,23.30
2017-07-23T09:41:39.752Z,23.30
2017-07-23T09:44:07.992Z,23.20
2017-07-23T09:46:36.276Z,23.10
2017-07-23T09:49:04.533Z,23.10
2017-07-23T09:51:32.849Z,23.40
2017-07-23T09:54:01.195Z,23.70
2017-07-23T09:56:29.421Z,23.80
2017-07-23T09:58:58.443Z,24.00
2017-07-23T10:01:27.299Z,24.00
2017-07-23T10:03:56.317Z,24.40
2017-07-23T10:06:24.559Z,24.40
2017-07-23T10:08:52.805Z,24.30
2017-07-23T10:11:21.134Z,24.10
2017-07-23T10:13:49.410Z,24.60
2017-07-23T10:16:18.433Z,24.50
2017-07-23T10:18:46.721Z,24.50
2017-07-23T10:21:14.954Z,24.80
2017-07-23T10:23:43.189Z,25.30
2017-07-23T10:26:11.484Z,25.60
2017-07-23T10:28:40.493Z,25.70
2017-07-23T10:31:09.505Z,25.70
2017-07-23T10:33:37.824Z,25.70
2017-07-23T10:36:06.069Z,25.30
2017-07-23T10:38:34.345Z,25.20
2017-07-23T10:41:02.600Z,25.10
2017-07-23T10:43:30.833Z,25.10
2017-07-23T10:45:59.090Z,24.90
2017-07-23T10:48:27.392Z,25.10
2017-07-23T10:50:56.577Z,25.20
2017-07-23T10:53:24.888Z,25.10
2017-07-23T10:55:53.963Z,24.70
2017-07-23T10:58:22.188Z,24.70
2017-07-23T11:00:50.460Z,24.70
2017-07-23T11:03:18.697Z,24.50
2017-07-23T11:05:47.725Z,24.30
2017-07-23T11:08:15.960Z,24.30
2017-07-23T11:10:45.160Z,23.70
2017-07-23T11:13:14.177Z,23.70
2017-07-23T11:15:42.452Z,23.70
2017-07-23T11:18:10.757Z,23.60
2017-07-23T11:20:39.037Z,23.60
2017-07-23T11:23:07.300Z,23.90
2017-07-23T11:25:35.557Z,24.00
2017-07-23T11:28:03.812Z,24.30
2017-07-23T11:30:32.844Z,24.40
2017-07-23T11:33:01.170Z,24.40
2017-07-23T11:35:30.235Z,25.40
2017-07-23T11:37:58.480Z,25.40
2017-07-23T11:40:26.732Z,26.10
2017-07-23T11:42:55.817Z,25.70
2017-07-23T11:45:24.849Z,25.60
2017-07-23T11:47:53.093Z,25.60
2017-07-23T11:50:22.109Z,25.00
2017-07-23T11:52:50.360Z,25.00
2017-07-23T11:55:20.523Z,25.10
2017-07-23T11:57:48.872Z,25.10
2017-07-23T12:00:17.100Z,25.90
2017-07-23T12:02:45.439Z,26.60
2017-07-23T12:05:13.697Z,26.30
2017-07-23T12:07:41.948Z,25.70
2017-07-23T12:10:11.024Z,25.40
2017-07-23T12:12:39.373Z,25.40
2017-07-23T12:15:07.615Z,25.70
2017-07-23T12:17:36.733Z,26.30
2017-07-23T12:20:05.165Z,26.30
2017-07-23T12:22:34.217Z,25.90
2017-07-23T12:25:02.445Z,25.90
2017-07-23T12:27:31.462Z,24.80
2017-07-23T12:29:59.798Z,24.80
2017-07-23T12:32:28.839Z,24.70
2017-07-23T12:34:57.073Z,24.70
2017-07-23T12:37:26.156Z,25.00
2017-07-23T12:39:54.489Z,24.90
2017-07-23T12:42:22.735Z,25.00
2017-07-23T12:44:51.891Z,25.00
2017-07-23T12:47:20.161Z,25.00
2017-07-23T12:49:48.397Z,24.90
2017-07-23T12:52:16.905Z,24.90
2017-07-23T12:54:45.268Z,24.80
2017-07-23T12:57:13.752Z,24.90
2017-07-23T12:59:41.985Z,24.90
2017-07-23T13:02:11.025Z,25.30
2017-07-23T13:04:39.276Z,25.20
2017-07-23T13:07:07.511Z,25.40
2017-07-23T13:09:35.761Z,25.60
2017-07-23T13:12:03.993Z,25.40
2017-07-23T13:14:32.250Z,25.30
2017-07-23T13:17:01.291Z,24.70
2017-07-23T13:19:29.536Z,24.70
2017-07-23T13:21:57.775Z,24.50
2017-07-23T13:24:26.028Z,24.30
2017-07-23T13:26:54.265Z,24.40
2017-07-23T13:29:22.577Z,24.60
2017-07-23T13:31:50.818Z,24.60
2017-07-23T13:34:19.054Z,24.50
2017-07-23T13:36:47.381Z,24.40
2017-07-23T13:39:15.673Z,24.40
2017-07-23T13:41:44.003Z,24.20
2017-07-23T13:44:13.014Z,24.10
2017-07-23T13:46:41.309Z,24.10
2017-07-23T13:49:09.574Z,24.00
2017-07-23T13:51:37.889Z,24.00
2017-07-23T13:54:06.139Z,23.90
2017-07-23T13:56:34.369Z,23.70
2017-07-23T13:59:03.486Z,23.60
2017-07-23T14:01:31.745Z,23.60
2017-07-23T14:04:00.764Z,23.60
2017-07-23T14:06:29.081Z,23.70
2017-07-23T14:08:57.404Z,23.70
2017-07-23T14:11:25.661Z,23.80
2017-07-23T14:13:54.713Z,24.00
2017-07-23T14:16:22.960Z,24.00
2017-07-23T14:18:51.308Z,24.00
2017-07-23T14:21:19.547Z,23.90
2017-07-23T14:23:47.774Z,24.00
2017-07-23T14:26:16.092Z,24.00
2017-07-23T14:28:44.371Z,24.00
2017-07-23T14:31:12.626Z,23.90
2017-07-23T14:33:40.949Z,23.90
2017-07-23T14:36:09.964Z,23.70
2017-07-23T14:38:38.272Z,23.70
2017-07-23T14:41:06.593Z,23.60
2017-07-23T14:43:35.592Z,23.40
2017-07-23T14:46:04.629Z,23.40
2017-07-23T14:48:32.912Z,23.30
2017-07-23T14:51:01.276Z,23.40
2017-07-23T14:56:04.284Z,23.20
2017-07-23T14:58:32.533Z,23.30
2017-07-23T15:01:00.817Z,23.30
2017-07-23T15:03:29.051Z,23.30
2017-07-23T15:05:57.301Z,23.30
2017-07-23T15:08:25.536Z,23.20
2017-07-23T15:10:53.789Z,23.30
2017-07-23T15:13:22.784Z,23.30
2017-07-23T15:15:51.801Z,23.30
2017-07-23T15:18:20.101Z,23.30
2017-07-23T15:20:48.521Z,23.20
2017-07-23T15:23:16.846Z,23.00
2017-07-23T15:25:45.072Z,23.00
2017-07-23T15:28:13.443Z,23.10
2017-07-23T15:30:41.717Z,23.20
2017-07-23T15:33:10.337Z,23.30
2017-07-23T15:35:38.632Z,23.40
2017-07-23T15:38:06.945Z,23.40
2017-07-23T15:40:35.189Z,23.40
2017-07-23T15:43:03.457Z,23.30
2017-07-23T15:45:31.757Z,23.30
2017-07-23T15:48:00.067Z,23.20
2017-07-23T15:50:28.299Z,23.20
2017-07-23T15:52:56.541Z,23.20
2017-07-23T15:55:24.785Z,23.30
2017-07-23T15:57:53.123Z,23.30
2017-07-23T16:00:21.384Z,23.40
2017-07-23T16:02:49.651Z,23.40
2017-07-23T16:05:17.900Z,23.50
2017-07-23T16:07:46.232Z,23.60
2017-07-23T16:10:14.485Z,23.60
2017-07-23T16:12:42.741Z,23.30
2017-07-23T16:15:11.013Z,23.20
2017-07-23T16:17:39.527Z,23.00
2017-07-23T16:20:07.883Z,23.00
2017-07-23T16:22:36.199Z,23.00
2017-07-23T16:25:04.440Z,23.00
2017-07-23T16:27:32.664Z,23.00
2017-07-23T16:30:00.957Z,23.00
2017-07-23T16:32:29.969Z,23.00
2017-07-23T16:34:58.255Z,23.00
2017-07-23T16:37:26.501Z,23.00
2017-07-23T16:39:55.529Z,22.80
2017-07-23T16:42:23.818Z,22.70
2017-07-23T16:44:52.117Z,22.80
2017-07-23T16:47:20.347Z,22.80
2017-07-23T16:49:48.624Z,22.90
2017-07-23T16:52:16.918Z,23.00
2017-07-23T16:54:45.173Z,22.90
2017-07-23T16:57:13.404Z,22.90
2017-07-23T16:59:41.657Z,22.90
2017-07-23T17:02:09.893Z,22.80
2017-07-23T17:04:38.148Z,22.70
2017-07-23T17:07:07.170Z,22.60
2017-07-23T17:09:35.441Z,22.60
2017-07-23T17:12:03.689Z,22.60
2017-07-23T17:14:31.920Z,22.60
2017-07-23T17:17:00.165Z,22.60
2017-07-23T17:19:28.422Z,22.60
2017-07-23T17:21:57.424Z,22.50
2017-07-23T17:24:25.695Z,22.40
2017-07-23T17:26:54.048Z,22.50
2017-07-23T17:29:22.321Z,22.50
2017-07-23T17:31:51.343Z,22.40
2017-07-23T17:34:19.663Z,22.30
2017-07-23T17:36:47.911Z,22.50
2017-07-23T17:39:16.200Z,22.50
2017-07-23T17:41:44.481Z,22.40
2017-07-23T17:44:12.755Z,22.50
2017-07-23T17:46:41.016Z,22.40
2017-07-23T17:49:09.275Z,22.40
2017-07-23T17:51:37.536Z,22.40
2017-07-23T17:54:06.544Z,22.30
2017-07-23T17:56:34.812Z,22.30
2017-07-23T17:59:03.054Z,22.30
2017-07-23T18:01:31.294Z,22.10
2017-07-23T18:03:59.565Z,22.10
2017-07-23T18:06:27.846Z,22.10
2017-07-23T18:08:56.051Z,22.00
2017-07-23T18:11:24.565Z,22.00
2017-07-23T18:13:53.561Z,22.10
2017-07-23T18:16:21.813Z,22.10
2017-07-23T18:18:50.838Z,22.00
2017-07-23T18:21:19.130Z,22.00
2017-07-23T18:23:47.418Z,22.00
2017-07-23T18:26:15.656Z,21.90
2017-07-23T18:28:43.912Z,21.80
2017-07-23T18:31:12.925Z,21.90
2017-07-23T18:33:41.937Z,21.90
2017-07-23T18:36:10.215Z,21.90
2017-07-23T18:38:38.462Z,21.80
2017-07-23T18:41:07.474Z,21.90
2017-07-23T18:43:35.706Z,21.90
2017-07-23T18:46:03.933Z,21.90
2017-07-23T18:48:32.208Z,21.80
2017-07-23T18:51:00.436Z,21.80
2017-07-23T18:53:29.488Z,21.80
2017-07-23T18:55:57.751Z,21.70
2017-07-23T18:58:26.010Z,21.70
2017-07-23T19:00:54.249Z,21.80
2017-07-23T19:03:22.482Z,21.80
2017-07-23T19:05:50.723Z,21.80
2017-07-23T19:08:19.159Z,21.80
2017-07-23T19:10:47.377Z,21.70
2017-07-23T19:13:16.435Z,21.70
2017-07-23T19:15:44.694Z,21.70
2017-07-23T19:18:12.957Z,21.70
2017-07-23T19:20:41.208Z,21.70
2017-07-23T19:23:09.434Z,21.60
2017-07-23T19:25:37.769Z,21.70
2017-07-23T19:28:06.022Z,21.60
2017-07-23T19:30:34.285Z,21.60
2017-07-23T19:33:03.312Z,21.60
2017-07-23T19:35:31.640Z,21.60
2017-07-23T19:37:59.964Z,21.70
2017-07-23T19:40:28.294Z,21.60
2017-07-23T19:42:56.521Z,21.60
2017-07-23T19:45:24.771Z,21.60
2017-07-23T19:47:53.769Z,21.60
2017-07-23T19:50:22.021Z,21.60
2017-07-23T19:52:51.013Z,21.50
2017-07-23T19:55:20.037Z,21.50
2017-07-23T19:57:48.365Z,21.50
2017-07-23T20:00:16.609Z,21.50
2017-07-23T20:02:45.144Z,21.40
2017-07-23T20:05:13.457Z,21.40
2017-07-23T20:07:41.718Z,21.40
2017-07-23T20:10:10.033Z,21.40
2017-07-23T20:12:38.276Z,21.40
2017-07-23T20:15:06.521Z,21.50
2017-07-23T20:17:35.529Z,21.40
2017-07-23T20:20:03.804Z,21.40
2017-07-23T20:22:32.079Z,21.40
2017-07-23T20:25:01.091Z,21.30
2017-07-23T20:27:29.385Z,21.30
2017-07-23T20:29:57.628Z,21.40
2017-07-23T20:32:25.935Z,21.30
2017-07-23T20:34:54.668Z,21.30
2017-07-23T20:37:22.967Z,21.30
2017-07-23T20:39:51.957Z,21.30
2017-07-23T20:42:20.228Z,21.30
2017-07-23T20:44:49.218Z,21.30
2017-07-23T20:47:18.229Z,21.30
2017-07-23T20:49:46.540Z,21.30
2017-07-23T20:52:14.812Z,21.30
2017-07-23T20:54:43.116Z,21.30
2017-07-23T20:57:11.655Z,21.30
2017-07-23T20:59:40.020Z,21.30
2017-07-23T21:02:08.305Z,21.40
2017-07-23T21:04:36.549Z,21.30
2017-07-23T21:07:05.579Z,21.30
2017-07-23T21:09:33.852Z,21.20
2017-07-23T21:12:02.228Z,21.20
2017-07-23T21:14:30.459Z,21.20
2017-07-23T21:16:59.480Z,21.10
2017-07-23T21:19:27.780Z,21.10
2017-07-23T21:21:56.053Z,21.10
2017-07-23T21:24:24.331Z,21.00
2017-07-23T21:26:52.681Z,21.00
2017-07-23T21:29:20.937Z,21.00
2017-07-23T21:31:49.971Z,21.00
2017-07-23T21:34:18.216Z,21.00
2017-07-23T21:36:46.480Z,21.00
2017-07-23T21:39:15.523Z,21.00
2017-07-23T21:41:43.762Z,21.00
2017-07-23T21:44:12.017Z,21.00
2017-07-23T21:46:40.255Z,21.10
2017-07-23T21:49:08.528Z,21.10
2017-07-23T21:51:36.782Z,21.00
2017-07-23T21:54:05.081Z,20.90
2017-07-23T21:56:33.314Z,20.90
2017-07-23T21:59:01.577Z,20.90
2017-07-23T22:01:30.582Z,20.90
2017-07-23T22:03:58.832Z,20.90
2017-07-23T22:06:27.044Z,20.90
2017-07-23T22:08:55.301Z,20.90
2017-07-23T22:11:23.546Z,20.90
2017-07-23T22:13:51.819Z,20.90
2017-07-23T22:16:20.089Z,20.90
2017-07-23T22:18:48.340Z,21.00
2017-07-23T22:21:16.582Z,20.90
2017-07-23T22:23:44.833Z,20.90
2017-07-23T22:26:13.875Z,20.90
2017-07-23T22:28:42.191Z,20.90
2017-07-23T22:31:10.453Z,21.00
2017-07-23T22:33:38.704Z,20.90
2017-07-23T22:36:06.937Z,20.90
2017-07-23T22:38:35.945Z,20.90
2017-07-23T22:41:04.249Z,20.80
2017-07-23T22:43:32.528Z,20.90
2017-07-23T22:46:00.826Z,20.90
2017-07-23T22:48:29.066Z,20.90
2017-07-23T22:50:57.312Z,20.90
2017-07-23T22:53:26.358Z,21.00
2017-07-23T22:55:54.612Z,21.00
2017-07-23T22:58:22.871Z,21.00
2017-07-23T23:00:51.126Z,21.10
2017-07-23T23:03:19.389Z,21.00
2017-07-23T23:05:47.668Z,21.00
2017-07-23T23:08:16.684Z,21.00
2017-07-23T23:10:44.953Z,21.00
2017-07-23T23:13:13.943Z,20.90
2017-07-23T23:15:42.994Z,20.90
2017-07-23T23:18:11.254Z,20.80
2017-07-23T23:20:39.526Z,20.80
2017-07-23T23:23:07.755Z,20.80
2017-07-23T23:25:36.784Z,20.80
2017-07-23T23:28:05.025Z,20.80
2017-07-23T23:30:34.052Z,20.70
2017-07-23T23:33:02.312Z,20.70
2017-07-23T23:35:30.579Z,20.70
2017-07-23T23:37:59.613Z,20.60
2017-07-23T23:40:27.881Z,20.60
2017-07-23T23:42:56.125Z,20.60
2017-07-23T23:45:24.359Z,20.60
2017-07-23T23:47:52.654Z,20.50
2017-07-23T23:50:20.876Z,20.50
2017-07-23T23:52:49.157Z,20.40
2017-07-23T23:55:17.399Z,20.40
2017-07-23T23:57:45.673Z,20.40
